Terminal Aerodrome Forecast
Issued by NWS Sterling, VA

Current Version | Previous Version | Graphics & Text | Print | Product List | Glossary On
Versions: 1 2 3 4 5 6 7 8 9 10 11 12 13 14 15 16 17 18 19 20 21 22 23 24 25 26 27 28 29
929
FTUS41 KLWX 241500 AAA
TAFDCA
TAF AMD
KDCA 241500Z 2415/2512 07006KT P6SM SCT250
     FM241700 11006KT P6SM SCT050
     FM242000 17006KT P6SM SCT050
     FM250000 16005KT P6SM SCT250
     FM250800 23004KT P6SM SCT110=

USA.gov is the U.S. government's official web portal to all federal, state and local government web resources and services.